Wetterdaten: Woche 05.02.18 - 11.02.18 (KW6)
Datum Zeit Temp. A. Feuchte A. Luftdruck Regen Wind Richtung Taupunkt Windchill Windben
05.02.2018 00:00 -3,6 C 84 % 1022,5 hPa 0,0 l/m 0,0 km/h N -5,9 C -3,6 C 0,0 km/h
05.02.2018 01:00 -3,4 C 84 % 1022,9 hPa 0,0 l/m 0,0 km/h N -5,8 C -3,4 C 0,0 km/h
05.02.2018 02:00 -3,5 C 84 % 1023,4 hPa 0,0 l/m 0,0 km/h N -5,9 C -3,5 C 0,0 km/h
05.02.2018 03:00 -3,8 C 84 % 1023,7 hPa 0,0 l/m 0,0 km/h N -6,1 C -3,8 C 0,0 km/h
05.02.2018 04:00 -4,3 C 84 % 1024,0 hPa 0,0 l/m 0,0 km/h N -6,6 C -4,3 C 0,0 km/h
05.02.2018 05:00 -4,8 C 84 % 1024,4 hPa 0,0 l/m 0,0 km/h N -7,1 C -4,8 C 0,0 km/h
05.02.2018 06:00 -4,7 C 84 % 1024,8 hPa 0,0 l/m 0,0 km/h N -6,9 C -4,7 C 0,4 km/h
05.02.2018 07:00 -4,3 C 84 % 1025,4 hPa 0,0 l/m 0,0 km/h N -6,6 C -4,3 C 0,4 km/h
05.02.2018 08:00 -4,2 C 84 % 1025,8 hPa 0,0 l/m 0,0 km/h N -6,5 C -4,2 C 0,4 km/h
05.02.2018 09:00 -1,9 C 84 % 1025,9 hPa 0,0 l/m 0,2 km/h N -4,3 C -1,9 C 2,4 km/h
05.02.2018 10:00 -0,3 C 84 % 1025,8 hPa 0,0 l/m 0,3 km/h N -2,7 C -0,3 C 3,2 km/h
05.02.2018 11:00 1,1 C 83 % 1025,5 hPa 0,0 l/m 0,3 km/h N -1,5 C 1,1 C 5,2 km/h
05.02.2018 12:00 1,8 C 76 % 1025,3 hPa 0,0 l/m 0,3 km/h N -1,9 C 1,8 C 6,4 km/h
05.02.2018 13:00 2,4 C 70 % 1024,8 hPa 0,0 l/m 0,4 km/h N -2,5 C 2,4 C 6,4 km/h
05.02.2018 14:00 2,5 C 68 % 1024,4 hPa 0,0 l/m 0,4 km/h N -2,8 C 2,5 C 7,6 km/h
05.02.2018 15:00 2,2 C 69 % 1024,2 hPa 0,0 l/m 0,1 km/h N -2,8 C 2,2 C 4,8 km/h
05.02.2018 16:00 1,7 C 70 % 1023,9 hPa 0,0 l/m 0,1 km/h N -3,2 C 1,7 C 3,2 km/h
05.02.2018 17:00 1,2 C 69 % 1024,0 hPa 0,0 l/m 0,0 km/h N -3,8 C 1,2 C 0,4 km/h
05.02.2018 18:00 0,9 C 69 % 1024,0 hPa 0,0 l/m 0,1 km/h N -4,1 C 0,9 C 2,0 km/h
05.02.2018 19:00 0,8 C 69 % 1023,9 hPa 0,0 l/m 0,1 km/h N -4,3 C 0,8 C 4,0 km/h
05.02.2018 20:00 0,4 C 70 % 1023,8 hPa 0,0 l/m 0,0 km/h N -4,5 C 0,4 C 0,0 km/h
05.02.2018 21:00 -0,1 C 72 % 1023,7 hPa 0,0 l/m 0,0 km/h N -4,6 C -0,1 C 0,0 km/h
05.02.2018 22:00 -0,5 C 72 % 1023,4 hPa 0,0 l/m 0,0 km/h N -4,9 C -0,5 C 0,0 km/h
05.02.2018 23:00 -0,8 C 72 % 1023,0 hPa 0,0 l/m 0,0 km/h N -5,1 C -0,8 C 0,0 km/h
06.02.2018 00:00 -0,7 C 73 % 1022,7 hPa 0,0 l/m 0,0 km/h N -5,0 C -0,7 C 0,0 km/h
06.02.2018 01:00 -0,8 C 73 % 1022,3 hPa 0,0 l/m 0,0 km/h N -5,0 C -0,8 C 0,0 km/h
06.02.2018 02:00 -1,0 C 75 % 1021,8 hPa 0,0 l/m 0,0 km/h N -4,9 C -1,0 C 0,0 km/h
06.02.2018 03:00 -1,2 C 75 % 1021,3 hPa 0,0 l/m 0,0 km/h N -5,0 C -1,2 C 0,4 km/h
06.02.2018 04:00 -1,4 C 72 % 1021,0 hPa 0,0 l/m 0,0 km/h N -5,7 C -1,4 C 1,6 km/h
06.02.2018 05:00 -1,7 C 72 % 1020,8 hPa 0,0 l/m 0,1 km/h N -6,0 C -1,7 C 4,8 km/h
06.02.2018 06:00 -1,9 C 73 % 1020,5 hPa 0,0 l/m 0,0 km/h N -6,0 C -1,9 C 2,0 km/h
06.02.2018 07:00 -2,0 C 74 % 1020,4 hPa 0,0 l/m 0,0 km/h N -6,0 C -2,0 C 1,6 km/h
06.02.2018 08:00 -2,0 C 75 % 1020,2 hPa 0,0 l/m 0,0 km/h N -5,8 C -2,0 C 1,2 km/h
06.02.2018 09:00 -1,5 C 75 % 1019,8 hPa 0,0 l/m 0,0 km/h N -5,3 C -1,5 C 2,0 km/h
06.02.2018 10:00 -1,2 C 73 % 1019,4 hPa 0,0 l/m 0,0 km/h N -5,4 C -1,2 C 4,0 km/h
06.02.2018 11:00 -0,6 C 72 % 1019,0 hPa 0,0 l/m 0,2 km/h N -5,1 C -0,6 C 4,4 km/h
06.02.2018 12:00 0,5 C 73 % 1018,1 hPa 0,0 l/m 0,4 km/h N -3,9 C 0,5 C 5,2 km/h
06.02.2018 13:00 1,3 C 73 % 1017,4 hPa 0,0 l/m 1,1 km/h N -3,0 C 1,3 C 6,4 km/h
06.02.2018 14:00 1,0 C 75 % 1016,8 hPa 0,0 l/m 0,4 km/h N -2,9 C 1,0 C 6,4 km/h
06.02.2018 15:00 1,0 C 77 % 1016,3 hPa 0,0 l/m 1,1 km/h N -2,6 C 1,0 C 8,0 km/h
06.02.2018 16:00 1,2 C 79 % 1015,9 hPa 0,0 l/m 0,6 km/h N -2,1 C 1,2 C 6,0 km/h
06.02.2018 17:00 1,1 C 80 % 1015,8 hPa 0,0 l/m 0,3 km/h N -1,9 C 1,1 C 5,2 km/h
06.02.2018 18:00 1,0 C 80 % 1015,9 hPa 0,0 l/m 0,3 km/h N -2,1 C 1,0 C 7,2 km/h
06.02.2018 19:00 0,8 C 81 % 1015,8 hPa 0,0 l/m 0,9 km/h N -2,1 C 0,8 C 7,2 km/h
06.02.2018 20:00 0,5 C 80 % 1015,6 hPa 0,0 l/m 1,2 km/h N -2,5 C 0,5 C 8,8 km/h
06.02.2018 21:00 0,2 C 81 % 1015,4 hPa 0,0 l/m 3,4 km/h N -2,7 C 0,2 C 9,7 km/h
06.02.2018 22:00 -0,3 C 81 % 1015,2 hPa 0,0 l/m 2,3 km/h N -3,1 C -0,3 C 12,5 km/h
06.02.2018 23:00 -0,1 C 81 % 1014,8 hPa 0,0 l/m 1,1 km/h N -2,9 C -0,1 C 8,0 km/h
07.02.2018 00:00 0,3 C 81 % 1014,5 hPa 0,0 l/m 0,3 km/h N -2,6 C 0,3 C 3,2 km/h
07.02.2018 01:00 0,2 C 82 % 1014,1 hPa 0,0 l/m 0,6 km/h N -2,5 C 0,2 C 4,8 km/h
07.02.2018 02:00 0,3 C 83 % 1013,9 hPa 0,0 l/m 0,8 km/h N -2,3 C 0,3 C 6,0 km/h
07.02.2018 03:00 0,2 C 83 % 1013,5 hPa 0,0 l/m 0,3 km/h N -2,3 C 0,2 C 4,8 km/h
07.02.2018 04:00 0,0 C 83 % 1013,3 hPa 0,0 l/m 0,4 km/h N -2,5 C 0,0 C 6,9 km/h
07.02.2018 05:00 -0,3 C 84 % 1012,8 hPa 0,0 l/m 0,1 km/h N -2,6 C -0,3 C 2,8 km/h
07.02.2018 06:00 -0,5 C 84 % 1012,8 hPa 0,0 l/m 0,1 km/h N -2,8 C -0,5 C 2,8 km/h
07.02.2018 07:00 -0,9 C 84 % 1012,9 hPa 0,0 l/m 0,0 km/h N -3,3 C -0,9 C 2,8 km/h
07.02.2018 08:00 -1,2 C 84 % 1013,2 hPa 0,0 l/m 0,0 km/h N -3,6 C -1,2 C 0,4 km/h
07.02.2018 09:00 -1,2 C 84 % 1013,2 hPa 0,0 l/m 0,0 km/h N -3,6 C -1,2 C 0,4 km/h
07.02.2018 10:00 -0,8 C 84 % 1013,0 hPa 0,0 l/m 0,0 km/h N -3,1 C -0,8 C 0,0 km/h
07.02.2018 11:00 -0,2 C 84 % 1012,5 hPa 0,0 l/m 0,0 km/h N -2,6 C -0,2 C 0,0 km/h
07.02.2018 12:00 0,3 C 84 % 1012,0 hPa 0,0 l/m 0,0 km/h N -2,1 C 0,3 C 0,0 km/h
07.02.2018 13:00 0,6 C 84 % 1011,6 hPa 0,0 l/m 0,0 km/h N -1,7 C 0,6 C 0,0 km/h
07.02.2018 14:00 1,0 C 84 % 1011,0 hPa 0,0 l/m 0,0 km/h N -1,4 C 1,0 C 0,0 km/h
07.02.2018 15:00 0,6 C 84 % 1011,0 hPa 0,0 l/m 0,0 km/h N -1,7 C 0,6 C 0,0 km/h
07.02.2018 16:00 0,5 C 84 % 1011,0 hPa 0,0 l/m 0,0 km/h N -1,9 C 0,5 C 0,0 km/h
07.02.2018 17:00 0,4 C 84 % 1011,1 hPa 0,0 l/m 0,0 km/h N -2,0 C 0,4 C 0,4 km/h
07.02.2018 18:00 0,4 C 84 % 1011,6 hPa 0,0 l/m 0,0 km/h N -2,0 C 0,4 C 0,4 km/h
07.02.2018 19:00 0,6 C 84 % 1012,2 hPa 0,3 l/m 0,3 km/h N -1,8 C 0,6 C 2,8 km/h
07.02.2018 20:00 0,6 C 84 % 1012,5 hPa 0,3 l/m 0,4 km/h N -1,8 C 0,6 C 4,8 km/h
07.02.2018 21:00 0,6 C 84 % 1012,6 hPa 0,0 l/m 1,6 km/h N -1,8 C 0,6 C 7,6 km/h
07.02.2018 22:00 0,5 C 84 % 1012,4 hPa 0,0 l/m 5,6 km/h N -1,9 C 0,1 C 14,5 km/h
07.02.2018 23:00 0,8 C 84 % 1012,4 hPa 0,3 l/m 8,3 km/h N -1,6 C -1,1 C 20,5 km/h
08.02.2018 00:00 0,9 C 83 % 1012,5 hPa 0,0 l/m 9,5 km/h N -1,6 C -2,0 C 21,7 km/h
08.02.2018 01:00 1,1 C 82 % 1012,3 hPa 0,3 l/m 10,2 km/h N -1,6 C -2,4 C 26,1 km/h
08.02.2018 02:00 1,3 C 82 % 1012,4 hPa 0,0 l/m 9,1 km/h N -1,5 C -1,2 C 22,9 km/h
08.02.2018 03:00 1,5 C 81 % 1012,4 hPa 0,3 l/m 8,1 km/h N -1,4 C -0,2 C 20,9 km/h
08.02.2018 04:00 1,3 C 81 % 1012,7 hPa 0,0 l/m 6,3 km/h N -1,6 C 1,2 C 18,9 km/h
08.02.2018 05:00 1,3 C 81 % 1013,0 hPa 0,3 l/m 9,4 km/h N -1,5 C -1,4 C 21,3 km/h
08.02.2018 06:00 1,5 C 80 % 1013,2 hPa 0,0 l/m 14,7 km/h N -1,5 C -5,0 C 31,4 km/h
08.02.2018 07:00 1,4 C 81 % 1013,9 hPa 0,3 l/m 12,9 km/h N -1,5 C -3,9 C 29,4 km/h
08.02.2018 08:00 1,4 C 82 % 1014,8 hPa 0,3 l/m 11,5 km/h N -1,4 C -3,0 C 30,6 km/h
08.02.2018 09:00 1,5 C 82 % 1015,0 hPa 0,5 l/m 12,8 km/h N -1,2 C -3,8 C 27,3 km/h
08.02.2018 10:00 1,6 C 82 % 1015,8 hPa 0,5 l/m 11,3 km/h N -1,2 C -2,7 C 24,9 km/h
08.02.2018 11:00 1,5 C 82 % 1016,1 hPa 0,8 l/m 13,3 km/h N -1,2 C -4,0 C 31,4 km/h
08.02.2018 12:00 1,6 C 81 % 1016,3 hPa 1,0 l/m 11,6 km/h N -1,2 C -2,8 C 27,0 km/h
08.02.2018 13:00 1,7 C 81 % 1016,5 hPa 0,8 l/m 10,5 km/h N -1,2 C -2,0 C 24,9 km/h
08.02.2018 14:00 1,7 C 81 % 1016,3 hPa 0,5 l/m 11,9 km/h N -1,2 C -3,0 C 28,2 km/h
08.02.2018 15:00 1,7 C 81 % 1016,6 hPa 0,5 l/m 9,5 km/h N -1,2 C -1,0 C 23,7 km/h
08.02.2018 16:00 1,6 C 81 % 1017,0 hPa 0,3 l/m 7,4 km/h N -1,3 C 0,6 C 20,1 km/h
08.02.2018 17:00 1,3 C 82 % 1017,5 hPa 0,3 l/m 7,0 km/h N -1,4 C 0,7 C 20,1 km/h
08.02.2018 18:00 1,3 C 82 % 1018,2 hPa 0,0 l/m 6,3 km/h N -1,4 C 0,7 C 20,1 km/h
08.02.2018 19:00 1,3 C 82 % 1018,7 hPa 0,0 l/m 2,7 km/h N -1,4 C 1,3 C 10,1 km/h
08.02.2018 20:00 1,3 C 82 % 1018,8 hPa 0,0 l/m 4,0 km/h N -1,5 C 1,3 C 15,3 km/h
08.02.2018 21:00 1,3 C 81 % 1019,0 hPa 0,0 l/m 3,9 km/h N -1,6 C 1,3 C 13,3 km/h
08.02.2018 22:00 1,3 C 80 % 1019,0 hPa 0,0 l/m 4,5 km/h N -1,8 C 1,3 C 14,9 km/h
08.02.2018 23:00 1,1 C 80 % 1019,1 hPa 0,0 l/m 4,0 km/h N -2,0 C 1,1 C 14,5 km/h
09.02.2018 00:00 0,9 C 80 % 1019,1 hPa 0,0 l/m 2,3 km/h N -2,2 C 0,9 C 9,7 km/h
09.02.2018 01:00 0,8 C 80 % 1019,3 hPa 0,0 l/m 1,7 km/h N -2,2 C 0,8 C 8,0 km/h
09.02.2018 02:00 0,7 C 80 % 1019,2 hPa 0,0 l/m 2,2 km/h N -2,3 C 0,7 C 8,4 km/h
09.02.2018 03:00 0,6 C 80 % 1019,1 hPa 0,0 l/m 3,0 km/h N -2,4 C 0,6 C 9,3 km/h
09.02.2018 04:00 0,6 C 80 % 1019,0 hPa 0,0 l/m 2,3 km/h N -2,5 C 0,6 C 8,0 km/h
09.02.2018 05:00 0,4 C 81 % 1019,0 hPa 0,0 l/m 0,4 km/h N -2,5 C 0,4 C 6,0 km/h
09.02.2018 06:00 0,3 C 81 % 1019,0 hPa 0,0 l/m 0,3 km/h N -2,6 C 0,3 C 4,8 km/h
09.02.2018 07:00 0,2 C 81 % 1019,0 hPa 0,0 l/m 0,5 km/h N -2,7 C 0,2 C 5,6 km/h
09.02.2018 08:00 0,2 C 81 % 1019,0 hPa 0,0 l/m 0,6 km/h N -2,7 C 0,2 C 5,6 km/h
09.02.2018 09:00 0,3 C 81 % 1018,9 hPa 0,0 l/m 2,5 km/h N -2,6 C 0,3 C 7,2 km/h
09.02.2018 10:00 0,8 C 80 % 1018,6 hPa 0,0 l/m 2,8 km/h N -2,3 C 0,8 C 7,6 km/h
09.02.2018 11:00 1,5 C 78 % 1018,0 hPa 0,3 l/m 1,6 km/h N -1,9 C 1,5 C 8,9 km/h
09.02.2018 12:00 2,0 C 75 % 1017,2 hPa 0,0 l/m 1,6 km/h N -1,9 C 2,0 C 8,8 km/h
09.02.2018 13:00 2,5 C 73 % 1016,8 hPa 0,0 l/m 0,8 km/h N -2,0 C 2,5 C 6,0 km/h
09.02.2018 14:00 2,5 C 71 % 1016,4 hPa 0,0 l/m 0,8 km/h N -2,1 C 2,5 C 6,4 km/h
09.02.2018 15:00 2,4 C 71 % 1016,3 hPa 0,0 l/m 0,2 km/h N -2,4 C 2,4 C 3,2 km/h
09.02.2018 16:00 2,0 C 73 % 1016,2 hPa 0,0 l/m 0,1 km/h N -2,3 C 2,0 C 3,2 km/h
09.02.2018 17:00 1,3 C 75 % 1016,3 hPa 0,0 l/m 0,3 km/h N -2,6 C 1,3 C 5,6 km/h
09.02.2018 18:00 1,0 C 75 % 1016,5 hPa 0,0 l/m 0,4 km/h N -2,9 C 1,0 C 5,6 km/h
09.02.2018 19:00 0,7 C 76 % 1016,6 hPa 0,0 l/m 0,2 km/h N -3,0 C 0,7 C 4,8 km/h
09.02.2018 20:00 0,6 C 76 % 1016,5 hPa 0,0 l/m 0,0 km/h N -3,1 C 0,6 C 2,0 km/h
09.02.2018 21:00 0,6 C 76 % 1016,5 hPa 0,0 l/m 0,0 km/h N -3,2 C 0,6 C 0,4 km/h
09.02.2018 22:00 0,4 C 77 % 1016,5 hPa 0,0 l/m 0,0 km/h N -3,1 C 0,4 C 0,4 km/h
09.02.2018 23:00 0,4 C 77 % 1016,3 hPa 0,0 l/m 0,0 km/h N -3,2 C 0,4 C 0,0 km/h
10.02.2018 00:00 0,3 C 78 % 1016,1 hPa 0,0 l/m 0,0 km/h N -3,2 C 0,3 C 0,0 km/h
10.02.2018 01:00 0,2 C 78 % 1016,0 hPa 0,0 l/m 0,0 km/h N -3,2 C 0,2 C 0,0 km/h
10.02.2018 02:00 0,2 C 78 % 1015,9 hPa 0,0 l/m 0,0 km/h N -3,2 C 0,2 C 1,2 km/h
10.02.2018 03:00 0,1 C 78 % 1016,0 hPa 0,0 l/m 0,1 km/h N -3,2 C 0,1 C 2,4 km/h
10.02.2018 04:00 -0,1 C 78 % 1016,5 hPa 0,0 l/m 1,8 km/h N -3,4 C -0,1 C 10,5 km/h
10.02.2018 05:00 -0,2 C 78 % 1016,8 hPa 0,0 l/m 1,2 km/h N -3,5 C -0,2 C 6,0 km/h
10.02.2018 06:00 -0,2 C 79 % 1017,1 hPa 0,0 l/m 1,7 km/h N -3,4 C -0,2 C 7,6 km/h
10.02.2018 07:00 -0,3 C 80 % 1017,4 hPa 0,0 l/m 0,2 km/h N -3,4 C -0,3 C 4,0 km/h
10.02.2018 08:00 -0,4 C 81 % 1017,7 hPa 0,0 l/m 0,3 km/h N -3,3 C -0,4 C 4,0 km/h
10.02.2018 09:00 -0,5 C 82 % 1017,8 hPa 0,0 l/m 1,8 km/h N -3,2 C -0,5 C 8,0 km/h
10.02.2018 10:00 -0,6 C 83 % 1017,9 hPa 0,0 l/m 2,3 km/h N -3,1 C -0,6 C 8,9 km/h
10.02.2018 11:00 -0,3 C 83 % 1017,8 hPa 0,0 l/m 3,1 km/h N -2,8 C -0,3 C 10,5 km/h
10.02.2018 12:00 0,0 C 82 % 1017,6 hPa 0,0 l/m 4,2 km/h N -2,7 C 0,0 C 10,5 km/h
10.02.2018 13:00 0,3 C 81 % 1017,3 hPa 0,0 l/m 2,9 km/h N -2,5 C 0,3 C 9,3 km/h
10.02.2018 14:00 0,6 C 81 % 1017,1 hPa 0,0 l/m 3,5 km/h N -2,3 C 0,6 C 10,5 km/h
10.02.2018 15:00 0,7 C 82 % 1016,8 hPa 0,0 l/m 2,5 km/h N -2,1 C 0,7 C 7,6 km/h
10.02.2018 16:00 0,8 C 82 % 1016,8 hPa 0,0 l/m 1,5 km/h N -2,0 C 0,8 C 7,2 km/h
10.02.2018 17:00 0,8 C 82 % 1017,1 hPa 0,0 l/m 3,3 km/h N -1,9 C 0,8 C 9,2 km/h
10.02.2018 18:00 0,8 C 83 % 1016,9 hPa 0,0 l/m 1,9 km/h N -1,8 C 0,8 C 8,5 km/h
10.02.2018 19:00 0,9 C 82 % 1016,8 hPa 0,0 l/m 0,1 km/h N -1,9 C 0,9 C 2,8 km/h
10.02.2018 20:00 0,6 C 82 % 1016,6 hPa 0,0 l/m 0,0 km/h N -2,1 C 0,6 C 0,4 km/h
10.02.2018 21:00 0,6 C 83 % 1016,4 hPa 0,0 l/m 0,2 km/h N -1,9 C 0,6 C 4,4 km/h
10.02.2018 22:00 0,5 C 82 % 1016,4 hPa 0,0 l/m 0,0 km/h N -2,2 C 0,5 C 2,0 km/h
10.02.2018 23:00 0,0 C 82 % 1016,2 hPa 0,0 l/m 0,0 km/h N -2,7 C 0,0 C 0,0 km/h
11.02.2018 00:00 -0,5 C 82 % 1015,5 hPa 0,0 l/m 0,0 km/h N -3,1 C -0,5 C 0,0 km/h
11.02.2018 01:00 -0,7 C 82 % 1015,0 hPa 0,0 l/m 0,0 km/h N -3,4 C -0,7 C 0,0 km/h
11.02.2018 02:00 -0,9 C 82 % 1014,8 hPa 0,0 l/m 0,0 km/h N -3,5 C -0,9 C 0,0 km/h
11.02.2018 03:00 -1,0 C 82 % 1014,2 hPa 0,0 l/m 0,0 km/h N -3,7 C -1,0 C 0,0 km/h
11.02.2018 04:00 -1,1 C 81 % 1013,6 hPa 0,0 l/m 0,0 km/h N -3,9 C -1,1 C 0,0 km/h
11.02.2018 05:00 -1,2 C 81 % 1013,4 hPa 0,0 l/m 0,0 km/h N -4,0 C -1,2 C 0,0 km/h
11.02.2018 06:00 -1,2 C 81 % 1013,1 hPa 0,0 l/m 0,0 km/h N -4,0 C -1,2 C 0,0 km/h
11.02.2018 07:00 -1,6 C 81 % 1013,1 hPa 0,0 l/m 0,0 km/h N -4,4 C -1,6 C 0,0 km/h
11.02.2018 08:00 -2,1 C 82 % 1013,0 hPa 0,0 l/m 0,0 km/h N -4,8 C -2,1 C 0,0 km/h
11.02.2018 09:00 -0,6 C 83 % 1012,7 hPa 0,0 l/m 0,0 km/h N -3,1 C -0,6 C 0,4 km/h
11.02.2018 10:00 2,1 C 78 % 1012,1 hPa 0,0 l/m 0,3 km/h N -1,3 C 2,1 C 4,8 km/h
11.02.2018 11:00 4,1 C 70 % 1011,3 hPa 0,0 l/m 0,9 km/h N -1,0 C 4,1 C 9,3 km/h
11.02.2018 12:00 4,9 C 69 % 1010,2 hPa 0,0 l/m 0,1 km/h N -0,3 C 4,9 C 2,4 km/h
11.02.2018 13:00 5,3 C 68 % 1009,5 hPa 0,0 l/m 0,2 km/h N -0,1 C 5,3 C 4,0 km/h
11.02.2018 14:00 6,5 C 65 % 1008,6 hPa 0,0 l/m 1,1 km/h N 0,3 C 6,5 C 10,5 km/h
11.02.2018 15:00 6,6 C 61 % 1008,1 hPa 0,0 l/m 1,1 km/h N -0,5 C 6,6 C 7,2 km/h
11.02.2018 16:00 5,1 C 64 % 1007,6 hPa 0,0 l/m 0,3 km/h N -1,2 C 5,1 C 6,4 km/h
11.02.2018 17:00 3,5 C 68 % 1007,4 hPa 0,0 l/m 0,0 km/h N -1,9 C 3,5 C 1,6 km/h
11.02.2018 18:00 2,3 C 71 % 1007,5 hPa 0,0 l/m 0,0 km/h N -2,3 C 2,3 C 0,0 km/h
11.02.2018 19:00 2,0 C 74 % 1007,5 hPa 0,0 l/m 0,0 km/h N -2,1 C 2,0 C 0,0 km/h
11.02.2018 20:00 2,3 C 74 % 1007,5 hPa 0,0 l/m 0,0 km/h N -1,9 C 2,3 C 0,0 km/h
11.02.2018 21:00 1,8 C 76 % 1007,6 hPa 0,0 l/m 0,0 km/h N -2,0 C 1,8 C 0,4 km/h
11.02.2018 22:00 1,8 C 78 % 1007,6 hPa 0,0 l/m 0,0 km/h N -1,5 C 1,8 C 0,0 km/h
11.02.2018 23:00 1,9 C 80 % 1007,8 hPa 0,0 l/m 0,0 km/h N -1,3 C 1,9 C 0,0 km/h
Min-Datum _ 05.02.18 11.02.18 11.02.18 - 05.02.18 - 05.02.18 08.02.18 05.02.18
_ Min-Zeit 05:45 15:15 17:15 - 00:00 - 05:45 06:15 00:00
Minimum _ -5,0 C 60 % 1007,3 hPa - 0,0 km/h - -7,3 C -5,4 C 0,0 km/h
Max-Datum _ 11.02.18 05.02.18 05.02.18 08.02.18 08.02.18 - 11.02.18 11.02.18 08.02.18
_ Max-Zeit 15:00 00:00 09:15 12:15 06:15 - 14:30 14:45 06:00
Maximum _ 7,1 C 84 % 1026,0 hPa 1,0 l/m 15,5 km/h
N
- 0,5 C 7,0 C 33,8 km/h
N
Durchschnitt _ 0,4 C 79 % 1016,6 hPa #7,5 l/m 1,8 km/h N -2,8 C 0,0 C 6,6 km/h